createdAt,value
2019-02-02T00:02:45.714Z,87.05
2019-02-02T00:06:48.203Z,87.06
2019-02-02T00:10:50.764Z,87.14
2019-02-02T00:14:53.259Z,87.16
2019-02-02T00:18:55.857Z,87.16
2019-02-02T00:22:58.706Z,87.09
2019-02-02T00:27:01.195Z,87.13
2019-02-02T00:31:03.749Z,87.19
2019-02-02T00:35:06.459Z,87.20
2019-02-02T00:39:11.511Z,87.27
2019-02-02T00:43:14.225Z,87.20
2019-02-02T00:47:16.812Z,87.27
2019-02-02T00:51:19.487Z,87.35
2019-02-02T00:55:22.430Z,87.38
2019-02-02T00:59:25.046Z,87.37
2019-02-02T01:03:27.667Z,87.40
2019-02-02T01:07:30.262Z,87.48
2019-02-02T01:11:33.077Z,87.51
2019-02-02T01:15:35.844Z,87.52
2019-02-02T01:19:38.326Z,87.55
2019-02-02T01:23:40.979Z,87.62
2019-02-02T01:27:43.612Z,87.64
2019-02-02T01:31:46.108Z,87.66
2019-02-02T01:35:48.540Z,87.71
2019-02-02T01:39:51.026Z,87.74
2019-02-02T01:43:53.576Z,87.79
2019-02-02T01:47:57.293Z,87.84
2019-02-02T01:51:59.828Z,87.82
2019-02-02T01:56:02.318Z,87.87
2019-02-02T02:00:05.212Z,87.97
2019-02-02T02:04:08.236Z,88.01
2019-02-02T02:08:10.776Z,88.06
2019-02-02T02:12:13.511Z,88.15
2019-02-02T02:16:16.336Z,88.17
2019-02-02T02:20:19.466Z,88.20
2019-02-02T02:24:22.095Z,88.31
2019-02-02T02:28:28.152Z,88.34
2019-02-02T02:32:28.752Z,88.46
2019-02-02T02:36:31.381Z,88.52
2019-02-02T02:40:33.915Z,88.53
2019-02-02T02:44:36.398Z,88.63
2019-02-02T02:48:39.004Z,88.68
2019-02-02T02:52:41.500Z,88.72
2019-02-02T02:56:43.940Z,88.80
2019-02-02T03:00:46.463Z,88.86
2019-02-02T03:04:48.898Z,88.98
2019-02-02T03:08:51.397Z,89.03
2019-02-02T03:12:54.154Z,89.18
2019-02-02T03:16:56.711Z,89.21
2019-02-02T03:20:59.139Z,89.20
2019-02-02T03:25:01.700Z,89.23
2019-02-02T03:29:04.127Z,89.23
2019-02-02T03:33:06.759Z,89.35
2019-02-02T03:37:09.329Z,89.30
2019-02-02T03:41:11.831Z,89.30
2019-02-02T03:45:16.694Z,89.40
2019-02-02T03:49:19.282Z,89.54
2019-02-02T03:53:21.720Z,89.58
2019-02-02T03:57:25.608Z,89.64
2019-02-02T04:01:30.212Z,89.63
2019-02-02T04:05:32.554Z,89.72
2019-02-02T04:09:34.981Z,89.78
2019-02-02T04:13:37.464Z,89.86
2019-02-02T04:17:40.155Z,89.98
2019-02-02T04:21:42.621Z,90.08
2019-02-02T04:25:46.808Z,90.15
2019-02-02T04:29:49.332Z,90.11
2019-02-02T04:33:51.743Z,90.17
2019-02-02T04:37:54.566Z,90.14
2019-02-02T04:41:56.968Z,90.16
2019-02-02T04:45:59.648Z,90.20
2019-02-02T04:50:02.316Z,90.23
2019-02-02T04:54:04.938Z,90.33
2019-02-02T04:58:07.588Z,90.33
2019-02-02T05:02:10.552Z,90.37
2019-02-02T05:06:12.962Z,90.33
2019-02-02T05:10:18.069Z,90.34
2019-02-02T05:14:20.532Z,90.36
2019-02-02T05:18:24.302Z,90.40
2019-02-02T05:22:26.698Z,90.46
2019-02-02T05:26:29.618Z,90.49
2019-02-02T05:30:32.764Z,90.48
2019-02-02T05:34:35.340Z,90.53
2019-02-02T05:38:37.894Z,90.64
2019-02-02T05:42:40.367Z,90.68
2019-02-02T05:46:42.800Z,90.69
2019-02-02T05:50:45.367Z,90.73
2019-02-02T05:54:47.751Z,90.70
2019-02-02T05:58:50.252Z,90.66
2019-02-02T06:02:52.810Z,90.61
2019-02-02T06:06:55.267Z,90.62
2019-02-02T06:10:57.875Z,90.60
2019-02-02T06:15:00.315Z,90.61
2019-02-02T06:19:02.732Z,90.66
2019-02-02T06:23:05.329Z,90.70
2019-02-02T06:27:08.027Z,90.68
2019-02-02T06:31:10.572Z,90.69
2019-02-02T06:35:14.524Z,90.70
2019-02-02T06:39:17.123Z,90.74
2019-02-02T06:43:19.665Z,90.71
2019-02-02T06:47:23.351Z,90.73
2019-02-02T06:51:25.799Z,90.67
2019-02-02T06:55:28.625Z,90.59
2019-02-02T06:59:31.063Z,90.57
2019-02-02T07:03:33.671Z,90.52
2019-02-02T07:07:36.225Z,90.52
2019-02-02T07:11:38.827Z,90.50
2019-02-02T07:15:41.269Z,90.41
2019-02-02T07:19:43.776Z,90.30
2019-02-02T07:23:46.198Z,90.33
2019-02-02T07:27:50.263Z,90.20
2019-02-02T07:31:52.692Z,90.08
2019-02-02T07:35:55.156Z,90.00
2019-02-02T07:39:57.784Z,90.00
2019-02-02T07:44:00.269Z,89.93
2019-02-02T07:48:02.801Z,89.89
2019-02-02T07:52:05.494Z,89.71
2019-02-02T07:56:08.190Z,89.60
2019-02-02T08:00:17.688Z,89.54
2019-02-02T08:04:20.190Z,89.29
2019-02-02T08:08:22.692Z,89.17
2019-02-02T08:12:25.178Z,89.10
2019-02-02T08:16:27.698Z,89.03
2019-02-02T08:20:30.252Z,89.00
2019-02-02T08:24:32.808Z,88.88
2019-02-02T08:28:35.392Z,88.75
2019-02-02T08:32:37.864Z,88.61
2019-02-02T08:36:40.358Z,88.46
2019-02-02T08:40:43.128Z,88.23
2019-02-02T08:44:45.596Z,88.20
2019-02-02T08:48:48.064Z,87.88
2019-02-02T08:52:50.485Z,87.75
2019-02-02T08:56:52.989Z,87.74
2019-02-02T09:01:03.842Z,87.35
2019-02-02T09:04:59.844Z,87.19
2019-02-02T09:09:02.445Z,86.84
2019-02-02T09:13:06.988Z,86.83
2019-02-02T09:17:09.621Z,86.63
2019-02-02T09:21:13.502Z,86.72
2019-02-02T09:25:17.079Z,86.96
2019-02-02T09:29:19.995Z,87.29
2019-02-02T09:33:22.438Z,87.60
2019-02-02T09:37:25.055Z,87.76
2019-02-02T09:41:27.632Z,88.03
2019-02-02T09:45:30.091Z,88.21
2019-02-02T09:49:32.810Z,88.38
2019-02-02T09:53:35.287Z,88.50
2019-02-02T09:57:37.820Z,88.63
2019-02-02T10:01:40.584Z,88.73
2019-02-02T10:05:43.017Z,88.76
2019-02-02T10:09:45.611Z,88.64
2019-02-02T10:13:48.046Z,88.38
2019-02-02T10:17:50.748Z,88.17
2019-02-02T10:21:53.306Z,87.76
2019-02-02T10:25:55.823Z,87.57
2019-02-02T10:29:58.297Z,87.30
2019-02-02T10:34:00.833Z,87.12
2019-02-02T10:38:03.375Z,86.99
2019-02-02T10:42:05.889Z,86.86
2019-02-02T10:46:10.737Z,86.71
2019-02-02T10:50:14.347Z,86.55
2019-02-02T10:54:16.758Z,86.54
2019-02-02T10:58:19.378Z,86.60
2019-02-02T11:02:23.929Z,86.92
2019-02-02T11:06:26.399Z,86.81
2019-02-02T11:10:31.331Z,86.77
2019-02-02T11:14:33.941Z,86.88
2019-02-02T11:18:36.458Z,86.84
2019-02-02T11:22:39.289Z,86.84
2019-02-02T11:26:41.925Z,86.83
2019-02-02T11:30:44.597Z,86.75
2019-02-02T11:34:47.178Z,86.50
2019-02-02T11:38:49.736Z,86.50
2019-02-02T11:42:52.395Z,86.39
2019-02-02T11:46:54.932Z,86.30
2019-02-02T11:50:57.433Z,86.24
2019-02-02T11:54:59.955Z,86.35
2019-02-02T11:59:04.034Z,86.28
2019-02-02T12:03:07.147Z,86.14
2019-02-02T12:07:09.828Z,86.22
2019-02-02T12:11:12.364Z,85.90
2019-02-02T12:15:18.088Z,85.91
2019-02-02T12:19:20.556Z,85.92
2019-02-02T12:23:23.006Z,85.63
2019-02-02T12:27:25.481Z,85.47
2019-02-02T12:31:28.011Z,85.67
2019-02-02T12:35:30.850Z,85.75
2019-02-02T12:39:33.360Z,86.07
2019-02-02T12:43:36.035Z,86.68
2019-02-02T12:47:38.451Z,86.48
2019-02-02T12:51:41.069Z,86.55
2019-02-02T12:55:43.690Z,86.21
2019-02-02T12:59:46.191Z,86.12
2019-02-02T13:04:01.167Z,85.86
2019-02-02T13:07:55.775Z,86.12
2019-02-02T13:11:58.317Z,86.17
2019-02-02T13:16:00.779Z,86.06
2019-02-02T13:20:03.419Z,86.16
2019-02-02T13:24:06.623Z,86.27
2019-02-02T13:28:09.174Z,86.35
2019-02-02T13:32:12.859Z,86.41
2019-02-02T13:36:15.420Z,86.47
2019-02-02T13:40:19.961Z,86.59
2019-02-02T13:44:22.487Z,86.62
2019-02-02T13:48:25.190Z,86.74
2019-02-02T13:52:27.617Z,86.95
2019-02-02T13:56:30.218Z,87.00
2019-02-02T14:00:33.405Z,87.13
2019-02-02T14:04:36.191Z,87.23
2019-02-02T14:08:38.844Z,87.33
2019-02-02T14:12:41.433Z,87.42
2019-02-02T14:16:43.836Z,87.56
2019-02-02T14:20:48.342Z,87.59
2019-02-02T14:24:50.771Z,87.66
2019-02-02T14:28:53.269Z,87.72
2019-02-02T14:32:55.835Z,87.86
2019-02-02T14:36:58.423Z,87.90
2019-02-02T14:41:00.988Z,87.95
2019-02-02T14:45:05.636Z,88.18
2019-02-02T14:49:09.566Z,88.22
2019-02-02T14:53:12.131Z,88.32
2019-02-02T14:57:14.559Z,88.50
2019-02-02T15:01:17.057Z,88.53
2019-02-02T15:05:22.081Z,88.54
2019-02-02T15:09:26.192Z,88.66
2019-02-02T15:13:29.114Z,88.47
2019-02-02T15:17:31.862Z,88.47
2019-02-02T15:21:34.256Z,88.57
2019-02-02T15:25:36.920Z,88.62
2019-02-02T15:29:39.395Z,88.69
2019-02-02T15:33:41.991Z,88.65
2019-02-02T15:37:44.519Z,88.58
2019-02-02T15:41:52.938Z,88.56
2019-02-02T15:45:51.189Z,88.58
2019-02-02T15:49:56.170Z,88.62
2019-02-02T15:53:58.651Z,88.61
2019-02-02T15:58:01.292Z,88.61
2019-02-02T16:02:04.190Z,88.65
2019-02-02T16:06:06.925Z,88.62
2019-02-02T16:10:15.229Z,88.58
2019-02-02T16:14:16.762Z,88.55
2019-02-02T16:18:19.312Z,88.61
2019-02-02T16:22:21.887Z,88.58
2019-02-02T16:26:24.412Z,88.66
2019-02-02T16:30:28.622Z,88.64
2019-02-02T16:34:31.072Z,88.76
2019-02-02T16:38:33.637Z,88.81
2019-02-02T16:42:38.058Z,88.92
2019-02-02T16:46:42.455Z,89.04
2019-02-02T16:50:46.456Z,89.06
2019-02-02T16:54:50.495Z,89.03
2019-02-02T16:58:54.702Z,89.12
2019-02-02T17:02:58.434Z,89.17
2019-02-02T17:07:01.412Z,89.14
2019-02-02T17:11:05.862Z,89.12
2019-02-02T17:15:10.950Z,88.97
2019-02-02T17:19:15.967Z,88.98
2019-02-02T17:23:21.156Z,88.87
2019-02-02T17:27:25.416Z,88.77
2019-02-02T17:31:29.287Z,88.77
2019-02-02T17:35:33.773Z,88.85
2019-02-02T17:39:38.307Z,88.82
2019-02-02T17:43:42.255Z,88.86
2019-02-02T17:47:45.753Z,88.87
2019-02-02T17:51:49.348Z,89.05
2019-02-02T17:55:54.266Z,89.26
2019-02-02T17:59:58.713Z,89.31
2019-02-02T18:04:04.731Z,89.53
2019-02-02T18:08:08.818Z,89.67
2019-02-02T18:12:11.927Z,89.74
2019-02-02T18:16:15.267Z,89.88
2019-02-02T18:20:17.916Z,89.93
2019-02-02T18:24:20.411Z,90.02
2019-02-02T18:28:22.910Z,90.01
2019-02-02T18:32:25.376Z,90.13
2019-02-02T18:36:27.916Z,90.37
2019-02-02T18:40:30.376Z,90.30
2019-02-02T18:44:32.801Z,90.44
2019-02-02T18:48:35.790Z,90.53
2019-02-02T18:52:38.486Z,90.65
2019-02-02T18:56:40.977Z,90.66
2019-02-02T19:00:44.900Z,90.63
2019-02-02T19:04:47.403Z,90.47
2019-02-02T19:08:50.263Z,90.21
2019-02-02T19:12:52.822Z,90.02
2019-02-02T19:17:01.205Z,89.72
2019-02-02T19:20:59.852Z,89.59
2019-02-02T19:25:02.292Z,89.63
2019-02-02T19:29:05.278Z,89.55
2019-02-02T19:33:08.142Z,89.64
2019-02-02T19:37:11.685Z,89.46
2019-02-02T19:41:14.215Z,89.50
2019-02-02T19:45:19.382Z,89.44
2019-02-02T19:49:22.034Z,89.58
2019-02-02T19:53:24.581Z,89.59
2019-02-02T19:57:27.902Z,89.50
2019-02-02T20:01:30.777Z,89.52
2019-02-02T20:05:33.538Z,89.54
2019-02-02T20:09:36.866Z,89.67
2019-02-02T20:13:39.838Z,89.76
2019-02-02T20:17:45.634Z,89.82
2019-02-02T20:21:47.268Z,89.90
2019-02-02T20:25:49.882Z,90.07
2019-02-02T20:29:52.303Z,90.14
2019-02-02T20:33:54.788Z,90.20
2019-02-02T20:37:57.316Z,90.30
2019-02-02T20:42:00.086Z,90.36
2019-02-02T20:46:02.505Z,90.51
2019-02-02T20:50:05.667Z,90.53
2019-02-02T20:54:08.198Z,90.52
2019-02-02T20:58:10.829Z,90.55
2019-02-02T21:02:13.368Z,90.54
2019-02-02T21:06:16.027Z,90.42
2019-02-02T21:10:21.992Z,90.42
2019-02-02T21:14:24.587Z,90.24
2019-02-02T21:18:27.043Z,90.04
2019-02-02T21:22:29.744Z,90.06
2019-02-02T21:26:32.523Z,90.02
2019-02-02T21:30:36.518Z,89.98
2019-02-02T21:34:39.206Z,89.93
2019-02-02T21:38:41.838Z,89.91
2019-02-02T21:42:44.531Z,89.86
2019-02-02T21:46:47.057Z,89.89
2019-02-02T21:50:49.699Z,89.79
2019-02-02T21:54:52.167Z,89.78
2019-02-02T21:58:54.625Z,89.78
2019-02-02T22:02:57.126Z,89.79
2019-02-02T22:06:59.542Z,89.81
2019-02-02T22:11:02.447Z,89.87
2019-02-02T22:15:06.368Z,89.83
2019-02-02T22:19:09.104Z,89.84
2019-02-02T22:23:11.731Z,89.83
2019-02-02T22:27:14.212Z,89.78
2019-02-02T22:31:16.635Z,89.57
2019-02-02T22:35:19.191Z,89.54
2019-02-02T22:39:21.645Z,89.44
2019-02-02T22:43:24.635Z,89.31
2019-02-02T22:47:28.017Z,89.31
2019-02-02T22:51:32.331Z,89.32
2019-02-02T22:55:35.122Z,89.35
2019-02-02T22:59:37.612Z,89.46
2019-02-02T23:03:53.206Z,89.56
2019-02-02T23:08:16.642Z,89.56
2019-02-02T23:13:01.227Z,89.48
2019-02-02T23:17:04.117Z,89.33
2019-02-02T23:21:07.956Z,89.24
2019-02-02T23:25:10.649Z,89.30
2019-02-02T23:29:13.062Z,89.07
2019-02-02T23:33:15.542Z,89.12
2019-02-02T23:37:18.013Z,88.90
2019-02-02T23:41:21.983Z,88.92
2019-02-02T23:45:24.665Z,88.92
2019-02-02T23:49:27.225Z,89.27
2019-02-02T23:53:30.347Z,89.37
2019-02-02T23:57:32.835Z,89.63
